Time;durP1;ratioP1;P1;durP2;ratioP2;P2;SDS_P1;SDS_P2;PMS_P1;PMS_P2;Temp;Humidity;BMP_temperature;BMP_pressure;BME280_temperature;BME280_humidity;BME280_pressure;Samples;Min_cycle;Max_cycle;Signal;HPM_P1;HPM_P2
2023/07/15 00:01:59;;;;;;;;;;;;;;;20.10;42.20;100593.63;7400959;19;19910;-67
2023/07/15 00:04:29;;;;;;;;;;;;;;;20.08;41.26;100592.03;7399258;19;19934;-67
2023/07/15 00:06:57;;;;;;;;;;;;;;;20.05;41.15;100581.59;7397964;19;19922;-67
2023/07/15 00:09:29;;;;;;;;;;;;;;;20.02;41.48;100580.81;7399102;19;19919;-66
2023/07/15 00:11:57;;;;;;;;;;;;;;;19.98;40.66;100576.66;7401098;19;19918;-66
2023/07/15 00:14:28;;;;;;;;;;;;;;;19.96;41.62;100569.72;7397626;19;19918;-67
2023/07/15 00:16:59;;;;;;;;;;;;;;;19.92;41.38;100569.06;7400217;19;19978;-67
2023/07/15 00:19:29;;;;;;;;;;;;;;;19.90;41.50;100576.28;7397797;19;20259;-67
2023/07/15 00:21:57;;;;;;;;;;;;;;;19.88;41.40;100574.66;7397640;19;19914;-67
2023/07/15 00:24:25;;;;;;;;;;;;;;;19.83;41.59;100565.16;7398121;19;20356;-67
2023/07/15 00:26:53;;;;;;;;;;;;;;;19.81;41.23;100560.84;7400193;19;19993;-67
2023/07/15 00:29:22;;;;;;;;;;;;;;;19.77;41.62;100564.69;7397690;19;19914;-67
2023/07/15 00:31:50;;;;;;;;;;;;;;;19.75;41.91;100558.59;7400066;19;19991;-68
2023/07/15 00:34:20;;;;;;;;;;;;;;;19.72;41.46;100553.47;7397689;19;20405;-67
2023/07/15 00:36:49;;;;;;;;;;;;;;;19.68;41.33;100553.66;7399888;19;20254;-67
2023/07/15 00:39:17;;;;;;;;;;;;;;;19.65;42.08;100550.31;7399604;19;19982;-67
2023/07/15 00:41:46;;;;;;;;;;;;;;;19.61;42.03;100552.31;7397148;19;20378;-67
2023/07/15 00:44:16;;;;;;;;;;;;;;;19.59;43.12;100554.22;7395169;19;19976;-67
2023/07/15 00:46:50;;;;;;;;;;;;;;;19.55;42.29;100544.75;7397694;19;19923;-68
2023/07/15 00:49:21;;;;;;;;;;;;;;;19.52;42.63;100544.91;7398686;19;19919;-67
2023/07/15 00:51:50;;;;;;;;;;;;;;;19.47;43.74;100541.69;7399020;19;19919;-67
2023/07/15 00:54:20;;;;;;;;;;;;;;;19.44;42.50;100545.41;7397919;19;20311;-67
2023/07/15 00:56:49;;;;;;;;;;;;;;;19.41;44.74;100550.06;7397183;19;19932;-67
2023/07/15 00:59:18;;;;;;;;;;;;;;;19.37;44.10;100536.09;7396991;19;19926;-67
2023/07/15 01:01:56;;;;;;;;;;;;;;;19.34;43.80;100531.81;7398689;19;20263;-67
2023/07/15 01:04:24;;;;;;;;;;;;;;;19.31;43.85;100529.34;7396476;19;20283;-66
2023/07/15 01:06:53;;;;;;;;;;;;;;;19.28;43.74;100529.53;7398734;19;19933;-66
2023/07/15 01:09:21;;;;;;;;;;;;;;;19.28;43.63;100529.53;7397349;19;19914;-66
2023/07/15 01:11:49;;;;;;;;;;;;;;;19.25;44.25;100527.06;7398696;19;19918;-66
2023/07/15 01:14:17;;;;;;;;;;;;;;;19.26;44.32;100527.91;7397302;19;19921;-66
2023/07/15 01:16:46;;;;;;;;;;;;;;;19.23;46.14;100526.28;7396682;19;19978;-66
2023/07/15 01:19:18;;;;;;;;;;;;;;;19.21;43.84;100538.84;7398403;19;19950;-66
2023/07/15 01:21:49;;;;;;;;;;;;;;;19.19;43.72;100530.94;7398162;19;19918;-66
2023/07/15 01:24:20;;;;;;;;;;;;;;;19.16;43.90;100530.31;7396564;19;20005;-67
2023/07/15 01:26:48;;;;;;;;;;;;;;;19.12;43.50;100523.44;7398677;19;19914;-66
2023/07/15 01:29:16;;;;;;;;;;;;;;;19.09;44.08;100511.19;7397281;19;19922;-67
2023/07/15 01:31:44;;;;;;;;;;;;;;;19.04;43.69;100513.28;7396229;19;19991;-66
2023/07/15 01:34:13;;;;;;;;;;;;;;;19.02;44.85;100513.38;7396819;19;19933;-67
2023/07/15 01:36:41;;;;;;;;;;;;;;;18.97;43.69;100507.50;7397814;19;19989;-67
2023/07/15 01:39:09;;;;;;;;;;;;;;;18.91;44.34;100509.69;7397391;19;20343;-66
2023/07/15 01:41:40;;;;;;;;;;;;;;;18.86;43.80;100501.94;7395955;19;19985;-66
2023/07/15 01:44:08;;;;;;;;;;;;;;;18.81;44.54;100502.19;7396011;19;19927;-67
2023/07/15 01:46:39;;;;;;;;;;;;;;;18.76;43.89;100506.09;7397574;19;20336;-66
2023/07/15 01:49:07;;;;;;;;;;;;;;;18.70;45.16;100497.56;7396532;19;19946;-66
2023/07/15 01:51:36;;;;;;;;;;;;;;;18.66;45.01;100492.50;7396981;19;19941;-66
2023/07/15 01:54:05;;;;;;;;;;;;;;;18.64;44.99;100489.94;7396251;19;19938;-66
2023/07/15 01:56:33;;;;;;;;;;;;;;;18.62;44.26;100497.13;7396966;19;19925;-67
2023/07/15 01:59:04;;;;;;;;;;;;;;;18.61;45.14;100492.75;7397849;19;19999;-67
2023/07/15 02:01:32;;;;;;;;;;;;;;;18.61;44.50;100492.75;7395856;19;19982;-67
2023/07/15 02:04:00;;;;;;;;;;;;;;;18.58;44.89;100482.34;7395653;19;19923;-66
2023/07/15 02:06:28;;;;;;;;;;;;;;;18.57;44.74;100491.25;7396917;19;19978;-66
2023/07/15 02:08:57;;;;;;;;;;;;;;;18.55;44.80;100488.69;7396145;19;19990;-68
2023/07/15 02:11:25;;;;;;;;;;;;;;;18.56;45.02;100494.84;7395271;19;19918;-65
2023/07/15 02:13:53;;;;;;;;;;;;;;;18.54;45.04;100488.78;7395870;19;19974;-66
2023/07/15 02:16:24;;;;;;;;;;;;;;;18.53;44.49;100492.38;7396381;19;19919;-66
2023/07/15 02:18:52;;;;;;;;;;;;;;;18.50;45.33;100485.44;7396338;19;19929;-67
2023/07/15 02:21:20;;;;;;;;;;;;;;;18.49;44.87;100488.22;7396571;19;19978;-67
2023/07/15 02:23:55;;;;;;;;;;;;;;;18.47;45.11;100492.75;7393410;19;20334;-67
2023/07/15 02:26:23;;;;;;;;;;;;;;;18.43;45.42;100491.22;7396553;19;20017;-67
2023/07/15 02:28:51;;;;;;;;;;;;;;;18.40;45.45;100492.25;7396110;19;19937;-67
2023/07/15 02:31:19;;;;;;;;;;;;;;;18.37;45.44;100498.59;7396263;19;19926;-68
2023/07/15 02:33:50;;;;;;;;;;;;;;;18.33;45.68;100499.72;7394870;19;20398;-67
2023/07/15 02:36:18;;;;;;;;;;;;;;;18.29;45.57;100502.66;7395677;19;19974;-68
2023/07/15 02:38:46;;;;;;;;;;;;;;;18.25;45.66;100501.97;7395538;19;20358;-68
2023/07/15 02:41:15;;;;;;;;;;;;;;;18.21;45.74;100501.28;7394098;19;19978;-68
2023/07/15 02:43:43;;;;;;;;;;;;;;;18.20;45.72;100496.06;7395116;19;19928;-67
2023/07/15 02:46:11;;;;;;;;;;;;;;;18.16;45.28;100502.47;7395883;19;19918;-67
2023/07/15 02:48:39;;;;;;;;;;;;;;;18.14;46.07;100505.22;7395958;19;19990;-67
2023/07/15 02:51:10;;;;;;;;;;;;;;;18.10;45.95;100493.09;7393868;19;19925;-67
2023/07/15 02:53:39;;;;;;;;;;;;;;;18.07;46.17;100491.47;7395066;19;20056;-67
2023/07/15 02:56:07;;;;;;;;;;;;;;;18.05;45.79;100489.84;7395230;19;20365;-67
2023/07/15 02:58:36;;;;;;;;;;;;;;;18.04;46.71;100493.44;7395411;19;20289;-67
2023/07/15 03:01:04;;;;;;;;;;;;;;;18.00;47.17;100487.44;7393609;19;19978;-67
2023/07/15 03:03:32;;;;;;;;;;;;;;;17.97;47.24;100482.31;7394246;19;20423;-67
2023/07/15 03:06:00;;;;;;;;;;;;;;;17.95;46.64;100483.34;7395263;19;19926;-67
2023/07/15 03:08:31;;;;;;;;;;;;;;;17.92;46.40;100484.34;7399677;19;19987;-67
2023/07/15 03:11:00;;;;;;;;;;;;;;;17.90;47.34;100486.22;7401391;19;19938;-69
2023/07/15 03:13:28;;;;;;;;;;;;;;;17.88;47.23;100477.47;7399458;19;19919;-68
2023/07/15 03:15:56;;;;;;;;;;;;;;;17.86;46.31;100479.38;7399876;19;19927;-68
2023/07/15 03:18:25;;;;;;;;;;;;;;;17.85;47.45;100478.50;7402444;19;20333;-68
2023/07/15 03:20:53;;;;;;;;;;;;;;;17.82;47.07;100477.81;7403147;19;19922;-68
2023/07/15 03:23:22;;;;;;;;;;;;;;;17.81;46.76;100476.13;7400066;19;20335;-69
2023/07/15 03:25:52;;;;;;;;;;;;;;;17.79;46.89;100473.53;7402293;19;19915;-69
2023/07/15 03:28:21;;;;;;;;;;;;;;;17.79;46.62;100470.03;7402606;19;19974;-70
2023/07/15 03:30:50;;;;;;;;;;;;;;;17.79;47.23;100467.41;7399579;19;20394;-69
2023/07/15 03:33:18;;;;;;;;;;;;;;;17.78;47.05;100468.31;7400701;19;19919;-69
2023/07/15 03:35:47;;;;;;;;;;;;;;;17.75;47.43;100462.28;7401932;19;19986;-69
2023/07/15 03:38:15;;;;;;;;;;;;;;;17.77;47.89;100461.31;7399182;19;19978;-69
2023/07/15 03:40:43;;;;;;;;;;;;;;;17.78;49.26;100461.25;7401747;19;19988;-69
2023/07/15 03:43:14;;;;;;;;;;;;;;;17.78;48.55;100455.06;7400982;19;19936;-69
2023/07/15 03:45:42;;;;;;;;;;;;;;;17.78;47.75;100460.38;7401984;19;19987;-69
2023/07/15 03:48:10;;;;;;;;;;;;;;;17.77;47.69;100453.34;7398539;19;19978;-69
2023/07/15 03:50:38;;;;;;;;;;;;;;;17.76;49.23;100452.50;7399819;19;19982;-69
2023/07/15 03:53:06;;;;;;;;;;;;;;;17.77;47.10;100453.34;7400862;19;20317;-68
2023/07/15 03:55:37;;;;;;;;;;;;;;;17.78;47.48;100447.97;7401238;19;19987;-69
2023/07/15 03:58:05;;;;;;;;;;;;;;;17.80;47.43;100459.34;7400771;19;19942;-67
2023/07/15 04:00:35;;;;;;;;;;;;;;;17.80;47.83;100456.69;7401149;19;19979;-68
2023/07/15 04:03:04;;;;;;;;;;;;;;;17.81;48.46;100463.72;7400965;19;19978;-68
2023/07/15 04:05:32;;;;;;;;;;;;;;;17.82;48.03;100469.84;7400928;19;19915;-68
2023/07/15 04:08:00;;;;;;;;;;;;;;;17.81;47.34;100461.06;7400829;19;19989;-69
2023/07/15 04:10:28;;;;;;;;;;;;;;;17.81;48.91;100455.75;7398339;19;20311;-68
2023/07/15 04:12:57;;;;;;;;;;;;;;;17.83;48.70;100463.63;7400360;19;19918;-69
2023/07/15 04:15:25;;;;;;;;;;;;;;;17.84;49.58;100460.88;7400480;19;19978;-69
2023/07/15 04:17:55;;;;;;;;;;;;;;;17.86;47.71;100452.84;7400158;19;20489;-69
2023/07/15 04:20:24;;;;;;;;;;;;;;;17.88;48.87;100456.25;7397687;19;20330;-69
2023/07/15 04:22:52;;;;;;;;;;;;;;;17.90;48.96;100449.91;7399201;19;19915;-69
2023/07/15 04:25:20;;;;;;;;;;;;;;;17.94;49.02;100436.50;7400192;19;19986;-69
2023/07/15 04:27:48;;;;;;;;;;;;;;;17.97;48.20;100438.97;7399589;19;19974;-69
2023/07/15 04:30:16;;;;;;;;;;;;;;;18.01;48.51;100435.22;7397791;19;19974;-69
2023/07/15 04:32:44;;;;;;;;;;;;;;;18.04;48.31;100432.38;7397620;19;19939;-69
2023/07/15 04:35:15;;;;;;;;;;;;;;;18.07;48.72;100429.53;7397122;19;20251;-69
2023/07/15 04:37:43;;;;;;;;;;;;;;;18.12;48.26;100432.81;7400966;19;19927;-69
2023/07/15 04:40:13;;;;;;;;;;;;;;;18.14;48.20;100430.03;7399781;19;19982;-69
2023/07/15 04:42:41;;;;;;;;;;;;;;;18.19;48.47;100427.97;7399580;19;19925;-69
2023/07/15 04:45:09;;;;;;;;;;;;;;;18.23;48.49;100437.47;7399553;19;19994;-69
2023/07/15 04:47:39;;;;;;;;;;;;;;;18.26;48.39;100434.66;7399063;19;20406;-68
2023/07/15 04:50:07;;;;;;;;;;;;;;;18.29;48.42;100439.75;7398690;19;20321;-69
2023/07/15 04:52:38;;;;;;;;;;;;;;;18.31;48.40;100435.22;7398969;19;19919;-69
2023/07/15 04:55:08;;;;;;;;;;;;;;;18.35;47.93;100447.38;7397149;19;19986;-69
2023/07/15 04:57:36;;;;;;;;;;;;;;;18.38;48.64;100433.91;7399166;19;19935;-69
2023/07/15 05:00:10;;;;;;;;;;;;;;;18.40;48.37;100434.66;7399078;19;19923;-69
2023/07/15 05:02:38;;;;;;;;;;;;;;;18.46;48.29;100437.91;7397386;19;19923;-69
2023/07/15 05:05:07;;;;;;;;;;;;;;;18.49;48.10;100429.75;7396274;19;19986;-69
2023/07/15 05:07:38;;;;;;;;;;;;;;;18.54;48.43;100435.66;7398382;19;19925;-70
2023/07/15 05:10:06;;;;;;;;;;;;;;;18.58;48.75;100431.84;7395903;19;19983;-69
2023/07/15 05:12:35;;;;;;;;;;;;;;;18.63;48.15;100426.28;7397787;19;20327;-69
2023/07/15 05:15:03;;;;;;;;;;;;;;;18.68;47.90;100435.66;7396429;19;19990;-69
2023/07/15 05:17:31;;;;;;;;;;;;;;;18.73;47.90;100428.25;7396566;19;19918;-69
2023/07/15 05:19:59;;;;;;;;;;;;;;;18.80;48.45;100430.53;7398528;19;19990;-69
2023/07/15 05:22:28;;;;;;;;;;;;;;;18.86;47.80;100424.84;7395627;19;19982;-68
2023/07/15 05:24:58;;;;;;;;;;;;;;;18.92;48.24;100426.31;7396693;19;20007;-69
2023/07/15 05:27:26;;;;;;;;;;;;;;;18.98;49.00;100424.13;7397897;19;20339;-69
2023/07/15 05:29:55;;;;;;;;;;;;;;;19.04;48.22;100429.06;7397070;19;19986;-69
2023/07/15 05:32:23;;;;;;;;;;;;;;;19.12;48.40;100431.25;7397719;19;20330;-69
2023/07/15 05:34:51;;;;;;;;;;;;;;;19.19;48.35;100429.91;7396310;19;19974;-69
2023/07/15 05:37:19;;;;;;;;;;;;;;;19.27;48.85;100437.41;7398126;19;19974;-69
2023/07/15 05:39:47;;;;;;;;;;;;;;;19.34;48.85;100433.41;7397881;19;19915;-69
2023/07/15 05:42:19;;;;;;;;;;;;;;;19.43;48.42;100425.78;7397671;19;19986;-69
2023/07/15 05:44:48;;;;;;;;;;;;;;;19.51;51.51;100420.81;7396090;19;19925;-69
2023/07/15 05:47:16;;;;;;;;;;;;;;;19.60;48.39;100427.34;7396863;19;20006;-69
2023/07/15 05:49:44;;;;;;;;;;;;;;;19.68;47.81;100435.72;7397017;19;19922;-69
2023/07/15 05:52:12;;;;;;;;;;;;;;;19.77;48.50;100426.28;7394941;19;19932;-69
2023/07/15 05:54:40;;;;;;;;;;;;;;;19.86;49.19;100429.19;7395346;19;19926;-69
2023/07/15 05:57:09;;;;;;;;;;;;;;;19.95;47.84;100426.88;7397266;19;19998;-69
2023/07/15 05:59:39;;;;;;;;;;;;;;;20.04;47.77;100428.94;7396715;19;19927;-69
2023/07/15 06:02:08;;;;;;;;;;;;;;;20.15;48.22;100428.22;7396735;19;19996;-69
2023/07/15 06:04:36;;;;;;;;;;;;;;;20.23;47.85;100423.22;7395079;19;19986;-69
2023/07/15 06:07:04;;;;;;;;;;;;;;;20.33;48.35;100427.00;7396506;19;19997;-69
2023/07/15 06:09:39;;;;;;;;;;;;;;;20.43;48.47;100427.19;7396067;19;19978;-69
2023/07/15 06:12:08;;;;;;;;;;;;;;;20.53;47.82;100427.44;7394398;19;19919;-69
2023/07/15 06:14:36;;;;;;;;;;;;;;;20.62;47.51;100423.28;7394527;19;19971;-70
2023/07/15 06:17:07;;;;;;;;;;;;;;;20.71;48.70;100425.31;7396349;19;20407;-70
2023/07/15 06:19:35;;;;;;;;;;;;;;;20.80;47.42;100438.03;7394496;19;20342;-70
2023/07/15 06:22:03;;;;;;;;;;;;;;;20.89;47.51;100433.88;7395884;19;20370;-69
2023/07/15 06:24:32;;;;;;;;;;;;;;;20.98;47.29;100427.88;7394416;19;19950;-69
2023/07/15 06:27:00;;;;;;;;;;;;;;;21.08;47.75;100430.75;7396016;19;20370;-70
2023/07/15 06:29:30;;;;;;;;;;;;;;;21.18;47.37;100430.97;7395576;19;19982;-70
2023/07/15 06:31:58;;;;;;;;;;;;;;;21.28;47.51;100432.00;7394229;19;19922;-69
2023/07/15 06:34:31;;;;;;;;;;;;;;;21.38;47.40;100426.88;7394655;19;19922;-70
2023/07/15 06:36:59;;;;;;;;;;;;;;;21.50;47.11;100422.44;7396301;19;19940;-69
2023/07/15 06:39:28;;;;;;;;;;;;;;;21.60;47.54;100423.50;7395604;19;19918;-69
2023/07/15 06:41:56;;;;;;;;;;;;;;;21.73;46.26;100418.09;7395308;19;19922;-69
2023/07/15 06:44:24;;;;;;;;;;;;;;;21.87;46.42;100416.22;7401314;19;19919;-69
2023/07/15 06:46:52;;;;;;;;;;;;;;;22.00;46.71;100410.81;7399869;19;19939;-69
2023/07/15 06:49:20;;;;;;;;;;;;;;;22.13;45.85;100412.44;7402769;19;20326;-70
2023/07/15 06:51:51;;;;;;;;;;;;;;;22.26;46.04;100409.69;7400580;19;19987;-69
2023/07/15 06:54:19;;;;;;;;;;;;;;;22.41;45.76;100409.53;7400476;19;20398;-69
2023/07/15 06:56:47;;;;;;;;;;;;;;;22.56;45.64;100404.81;7402864;19;20306;-69
2023/07/15 06:59:16;;;;;;;;;;;;;;;22.71;45.67;100390.25;7399640;19;20327;-70
2023/07/15 07:01:44;;;;;;;;;;;;;;;22.88;44.96;100396.09;7402829;19;19982;-71
2023/07/15 07:04:12;;;;;;;;;;;;;;;23.05;44.58;100397.41;7400867;19;19926;-70
2023/07/15 07:06:40;;;;;;;;;;;;;;;23.21;44.93;100399.75;7402343;19;20359;-70
2023/07/15 07:09:11;;;;;;;;;;;;;;;23.37;44.14;100396.69;7402428;19;19982;-69
2023/07/15 07:11:39;;;;;;;;;;;;;;;23.52;43.89;100400.78;7400017;19;20339;-69
2023/07/15 07:14:08;;;;;;;;;;;;;;;23.67;44.27;100395.13;7399129;19;19978;-69
2023/07/15 07:16:36;;;;;;;;;;;;;;;23.78;43.63;100392.41;7402298;19;19918;-69
2023/07/15 07:19:04;;;;;;;;;;;;;;;23.89;43.45;100391.53;7402384;19;19914;-68
2023/07/15 07:21:32;;;;;;;;;;;;;;;24.00;43.88;100388.81;7402293;19;19994;-69
2023/07/15 07:24:00;;;;;;;;;;;;;;;24.11;43.46;100387.06;7399766;19;20331;-69
2023/07/15 07:26:31;;;;;;;;;;;;;;;24.20;43.31;100387.13;7401888;19;19974;-69
2023/07/15 07:28:59;;;;;;;;;;;;;;;24.31;43.57;100382.69;7402460;19;19982;-69
2023/07/15 07:31:27;;;;;;;;;;;;;;;24.44;43.14;100388.69;7399229;19;19998;-69
2023/07/15 07:33:56;;;;;;;;;;;;;;;24.54;42.50;100383.38;7400314;19;20310;-69
2023/07/15 07:36:24;;;;;;;;;;;;;;;24.66;42.41;100379.66;7398850;19;19995;-70
2023/07/15 07:38:52;;;;;;;;;;;;;;;24.77;42.02;100381.41;7401650;19;19914;-70
2023/07/15 07:41:20;;;;;;;;;;;;;;;24.87;42.05;100384.97;7401404;19;19982;-70
2023/07/15 07:43:51;;;;;;;;;;;;;;;24.96;41.59;100377.09;7399823;19;19978;-70
2023/07/15 07:46:19;;;;;;;;;;;;;;;25.05;42.35;100382.50;7400943;19;20362;-70
2023/07/15 07:48:47;;;;;;;;;;;;;;;25.14;41.58;100380.00;7400635;19;19918;-69
2023/07/15 07:51:15;;;;;;;;;;;;;;;25.23;42.03;100375.63;7400095;19;19978;-69
2023/07/15 07:53:43;;;;;;;;;;;;;;;25.30;41.59;100371.38;7397581;19;20332;-70
2023/07/15 07:56:12;;;;;;;;;;;;;;;25.37;41.81;100367.19;7398228;19;19919;-69
2023/07/15 07:58:41;;;;;;;;;;;;;;;25.46;41.60;100363.69;7400715;19;19926;-68
2023/07/15 08:01:12;;;;;;;;;;;;;;;25.53;41.24;100364.81;7400394;19;20255;-69
2023/07/15 08:03:40;;;;;;;;;;;;;;;25.62;41.28;100354.25;7400297;19;19926;-69
2023/07/15 08:06:08;;;;;;;;;;;;;;;25.70;41.35;100359.75;7400453;19;19942;-69
2023/07/15 08:08:37;;;;;;;;;;;;;;;25.78;41.02;100351.84;7400074;19;20363;-70
2023/07/15 08:11:05;;;;;;;;;;;;;;;25.88;40.48;100348.28;7399888;19;19998;-70
2023/07/15 08:13:33;;;;;;;;;;;;;;;25.96;40.62;100351.13;7399463;19;20012;-69
2023/07/15 08:16:01;;;;;;;;;;;;;;;26.05;40.39;100352.97;7400066;19;20402;-70
2023/07/15 08:18:32;;;;;;;;;;;;;;;26.14;40.15;100365.53;7400006;19;19940;-69
2023/07/15 08:21:00;;;;;;;;;;;;;;;26.21;40.35;100359.59;7400517;19;19926;-69
2023/07/15 08:23:28;;;;;;;;;;;;;;;26.27;40.30;100359.84;7397407;19;19919;-70
2023/07/15 08:26:03;;;;;;;;;;;;;;;26.36;40.09;100359.97;7399530;19;20050;-69
2023/07/15 08:28:31;;;;;;;;;;;;;;;26.46;39.84;100367.03;7399298;19;20001;-70
2023/07/15 08:30:59;;;;;;;;;;;;;;;26.53;40.13;100356.53;7399072;19;19994;-69
2023/07/15 08:33:27;;;;;;;;;;;;;;;26.61;39.53;100353.09;7399237;19;19978;-69
2023/07/15 08:35:58;;;;;;;;;;;;;;;26.69;40.01;100355.06;7399278;19;19989;-69
2023/07/15 08:38:26;;;;;;;;;;;;;;;26.76;39.26;100348.97;7399087;19;19974;-69
2023/07/15 08:41:00;;;;;;;;;;;;;;;26.85;39.44;100346.38;7396880;19;19986;-69
2023/07/15 08:43:28;;;;;;;;;;;;;;;26.93;39.24;100352.72;7398692;19;19940;-69
2023/07/15 08:45:59;;;;;;;;;;;;;;;27.02;39.38;100342.03;7399356;19;19990;-69
2023/07/15 08:48:28;;;;;;;;;;;;;;;27.10;39.35;100356.44;7397511;19;19978;-69
2023/07/15 08:50:59;;;;;;;;;;;;;;;27.19;38.88;100354.69;7399102;19;20009;-68
2023/07/15 08:53:28;;;;;;;;;;;;;;;27.29;39.23;100358.16;7397828;19;19974;-69
2023/07/15 08:55:57;;;;;;;;;;;;;;;27.40;38.61;100359.81;7399287;19;19933;-70
2023/07/15 08:58:26;;;;;;;;;;;;;;;27.48;38.01;100357.19;7397231;19;19929;-69
2023/07/15 09:00:54;;;;;;;;;;;;;;;27.55;38.25;100354.75;7399035;19;19994;-70
2023/07/15 09:03:24;;;;;;;;;;;;;;;27.62;38.03;100350.44;7398241;19;19978;-69
2023/07/15 09:05:52;;;;;;;;;;;;;;;27.70;38.14;100344.28;7396005;19;20064;-69
2023/07/15 09:08:23;;;;;;;;;;;;;;;27.79;38.42;100350.56;7398353;19;19932;-69
2023/07/15 09:10:53;;;;;;;;;;;;;;;27.87;38.22;100345.25;7398863;19;19990;-69
2023/07/15 09:13:26;;;;;;;;;;;;;;;27.96;38.22;100348.88;7395958;19;19927;-69
2023/07/15 09:15:54;;;;;;;;;;;;;;;28.05;38.08;100342.56;7395971;19;19918;-68
2023/07/15 09:18:23;;;;;;;;;;;;;;;28.16;37.47;100336.06;7397919;19;19926;-68
2023/07/15 09:20:52;;;;;;;;;;;;;;;28.27;37.86;100345.75;7397526;19;19946;-68
2023/07/15 09:23:24;;;;;;;;;;;;;;;28.36;37.90;100339.41;7396991;19;20758;-69
2023/07/15 09:25:54;;;;;;;;;;;;;;;28.47;37.51;100340.13;7395826;19;20335;-69
2023/07/15 09:28:23;;;;;;;;;;;;;;;28.57;37.53;100339.03;7398377;19;19923;-70
2023/07/15 09:30:51;;;;;;;;;;;;;;;28.65;37.46;100338.22;7397865;19;19919;-70
2023/07/15 09:33:29;;;;;;;;;;;;;;;28.75;36.97;100333.56;7395852;19;19970;-70
2023/07/15 09:35:57;;;;;;;;;;;;;;;28.84;36.56;100341.69;7397292;19;20286;-69
2023/07/15 09:38:31;;;;;;;;;;;;;;;28.93;36.42;100335.31;7397362;19;19918;-70
2023/07/15 09:40:59;;;;;;;;;;;;;;;29.04;36.56;100339.56;7397395;19;19978;-69
2023/07/15 09:43:45;;;;;;;;;;;;;;;29.14;36.21;100337.56;7397235;19;20318;-68
2023/07/15 09:46:15;;;;;;;;;;;;;;;29.26;35.79;100330.00;7396848;19;19946;-69
2023/07/15 09:48:43;;;;;;;;;;;;;;;29.34;35.92;100343.53;7396595;19;19978;-68
2023/07/15 09:51:13;;;;;;;;;;;;;;;29.44;36.02;100337.16;7397120;19;19929;-68
2023/07/15 09:53:46;;;;;;;;;;;;;;;29.52;35.86;100334.44;7396000;19;19971;-69
2023/07/15 09:56:14;;;;;;;;;;;;;;;29.59;34.87;100335.47;7397298;19;19919;-69
2023/07/15 09:58:45;;;;;;;;;;;;;;;29.65;34.51;100337.50;7396509;19;19936;-68
2023/07/15 10:01:14;;;;;;;;;;;;;;;29.73;35.11;100331.25;7395956;19;20349;-68
2023/07/15 10:03:44;;;;;;;;;;;;;;;29.77;32.66;100324.50;7394619;19;19922;-68
2023/07/15 10:06:13;;;;;;;;;;;;;;;29.84;34.38;100336.34;7395661;19;20363;-69
2023/07/15 10:08:44;;;;;;;;;;;;;;;29.87;32.48;100327.03;7396252;19;19978;-69
2023/07/15 10:11:13;;;;;;;;;;;;;;;29.94;34.96;100328.09;7396686;19;20281;-69
2023/07/15 10:13:42;;;;;;;;;;;;;;;30.01;33.98;100337.19;7394498;19;19919;-68
2023/07/15 10:16:10;;;;;;;;;;;;;;;30.10;31.70;100342.59;7394570;19;19989;-68
2023/07/15 10:18:38;;;;;;;;;;;;;;;30.16;33.22;100342.75;7396861;19;19994;-68
2023/07/15 10:21:08;;;;;;;;;;;;;;;30.22;30.42;100339.34;7396210;19;19943;-69
2023/07/15 10:23:52;;;;;;;;;;;;;;;30.27;32.45;100333.44;7394954;19;19936;-69
2023/07/15 10:26:22;;;;;;;;;;;;;;;30.32;31.90;100338.34;7396755;19;19918;-69
2023/07/15 10:28:53;;;;;;;;;;;;;;;30.36;32.54;100337.81;7395771;19;19978;-69
2023/07/15 10:31:26;;;;;;;;;;;;;;;30.43;30.01;100337.13;7396575;19;19923;-69
2023/07/15 10:33:56;;;;;;;;;;;;;;;30.52;30.33;100347.78;7394453;19;20337;-69
2023/07/15 10:36:37;;;;;;;;;;;;;;;30.59;31.57;100342.50;7394437;19;19923;-69
2023/07/15 10:39:15;;;;;;;;;;;;;;;30.65;29.17;100336.41;7393565;19;19937;-69
2023/07/15 10:41:43;;;;;;;;;;;;;;;30.76;29.39;100342.44;7395649;19;19929;-68
2023/07/15 10:44:22;;;;;;;;;;;;;;;30.84;28.04;100345.97;7394314;19;19923;-68
2023/07/15 10:46:50;;;;;;;;;;;;;;;30.91;28.89;100346.09;7395368;19;19923;-69
2023/07/15 10:49:18;;;;;;;;;;;;;;;30.99;29.67;100342.53;7395248;19;20394;-72
2023/07/15 10:51:47;;;;;;;;;;;;;;;31.04;29.40;100351.78;7394908;19;19935;-69
2023/07/15 10:54:20;;;;;;;;;;;;;;;31.11;27.83;100341.13;7393728;19;20355;-69
2023/07/15 10:56:48;;;;;;;;;;;;;;;31.18;29.17;100347.50;7395620;19;19966;-68
2023/07/15 10:59:16;;;;;;;;;;;;;;;31.27;28.11;100344.78;7395299;19;19942;-69
2023/07/15 11:01:45;;;;;;;;;;;;;;;31.38;27.49;100357.03;7394835;19;19930;-69
2023/07/15 11:04:13;;;;;;;;;;;;;;;31.47;29.04;100345.16;7392525;19;19998;-69
2023/07/15 11:06:42;;;;;;;;;;;;;;;31.57;28.96;100356.59;7395027;19;19938;-68
2023/07/15 11:09:21;;;;;;;;;;;;;;;31.64;27.96;100344.00;7394803;19;19982;-69
2023/07/15 11:11:50;;;;;;;;;;;;;;;31.76;28.07;100349.00;7396342;19;19979;-69
2023/07/15 11:14:25;;;;;;;;;;;;;;;31.83;28.51;100344.53;7392339;19;20343;-69
2023/07/15 11:16:54;;;;;;;;;;;;;;;31.92;28.09;100338.00;7392317;19;19935;-69
2023/07/15 11:19:23;;;;;;;;;;;;;;;32.00;25.64;100335.22;7394214;19;20002;-68
2023/07/15 11:21:51;;;;;;;;;;;;;;;32.08;26.96;100330.75;7394095;19;19925;-69
2023/07/15 11:24:23;;;;;;;;;;;;;;;32.15;27.76;100329.84;7390875;19;19922;-68
2023/07/15 11:26:52;;;;;;;;;;;;;;;32.26;26.52;100328.53;7394168;19;19978;-67
2023/07/15 11:29:21;;;;;;;;;;;;;;;32.38;25.34;100322.66;7397910;19;20374;-69
2023/07/15 11:31:50;;;;;;;;;;;;;;;32.49;25.60;100335.75;7401118;19;20006;-69
2023/07/15 11:34:19;;;;;;;;;;;;;;;32.59;24.74;100324.63;7398412;19;19915;-69
2023/07/15 11:36:47;;;;;;;;;;;;;;;32.71;25.76;100325.00;7398488;19;19922;-69
2023/07/15 11:39:16;;;;;;;;;;;;;;;32.81;25.54;100328.28;7401060;19;20398;-69
2023/07/15 11:41:47;;;;;;;;;;;;;;;32.92;26.72;100326.94;7400998;19;19915;-69
2023/07/15 11:44:16;;;;;;;;;;;;;;;33.05;25.10;100320.81;7399394;19;19926;-69
2023/07/15 11:46:46;;;;;;;;;;;;;;;33.18;24.63;100320.97;7400062;19;20361;-69
2023/07/15 11:49:21;;;;;;;;;;;;;;;33.29;24.55;100335.97;7400814;19;19927;-68
2023/07/15 11:51:49;;;;;;;;;;;;;;;33.40;23.61;100330.03;7400804;19;19931;-69
2023/07/15 11:54:18;;;;;;;;;;;;;;;33.50;23.67;100316.09;7398259;19;19974;-68
2023/07/15 11:56:50;;;;;;;;;;;;;;;33.65;23.50;100328.78;7397777;19;19978;-69
2023/07/15 11:59:27;;;;;;;;;;;;;;;33.79;23.91;100333.28;7399950;19;20070;-70
2023/07/15 12:01:55;;;;;;;;;;;;;;;33.93;23.83;100329.69;7400934;19;19974;-69
2023/07/15 12:04:24;;;;;;;;;;;;;;;34.10;24.45;100327.50;7398161;19;19927;-69
2023/07/15 12:06:53;;;;;;;;;;;;;;;34.29;23.73;100305.19;7397342;19;19974;-69
2023/07/15 12:09:22;;;;;;;;;;;;;;;34.49;24.37;100311.66;7399223;19;19978;-69
2023/07/15 12:11:53;;;;;;;;;;;;;;;34.70;23.31;100307.94;7399556;19;19918;-69
2023/07/15 12:14:21;;;;;;;;;;;;;;;34.89;22.16;100309.13;7396693;19;20331;-70
2023/07/15 12:16:53;;;;;;;;;;;;;;;35.07;22.69;100302.25;7399506;19;19998;-70
2023/07/15 12:19:23;;;;;;;;;;;;;;;35.22;23.08;100299.34;7397568;19;19922;-70
2023/07/15 12:21:51;;;;;;;;;;;;;;;35.39;22.74;100288.91;7398861;19;20363;-70
2023/07/15 12:24:19;;;;;;;;;;;;;;;35.57;20.94;100273.81;7396803;19;19982;-70
2023/07/15 12:26:47;;;;;;;;;;;;;;;35.75;21.36;100276.75;7399205;19;19975;-70
2023/07/15 12:29:18;;;;;;;;;;;;;;;35.90;21.72;100273.00;7396748;19;19922;-69
2023/07/15 12:31:46;;;;;;;;;;;;;;;36.06;22.60;100272.53;7399279;19;19939;-70
2023/07/15 12:34:14;;;;;;;;;;;;;;;36.23;20.56;100270.16;7396394;19;19928;-70
2023/07/15 12:36:43;;;;;;;;;;;;;;;36.37;22.39;100265.53;7396718;19;19974;-69
2023/07/15 12:39:11;;;;;;;;;;;;;;;36.51;21.43;100267.19;7398297;19;19951;-70
2023/07/15 12:41:39;;;;;;;;;;;;;;;36.65;22.04;100262.50;7394185;19;19922;-70
2023/07/15 12:44:12;;;;;;;;;;;;;;;36.80;22.37;100254.00;7396486;19;19926;-70
2023/07/15 12:46:42;;;;;;;;;;;;;;;36.99;21.31;100259.59;7399094;19;19919;-70